sensor_id;sensor_type;location;lat;lon;timestamp;pressure;altitude;pressure_sealevel;temperature;humidity
62976;BME280;49071;0.000;0.000;2024-02-26T00:00:28;99886.28;;;18.63;
62976;BME280;49071;0.000;0.000;2024-02-26T00:03:29;99892.66;;;18.61;
62976;BME280;49071;0.000;0.000;2024-02-26T00:06:30;99901.47;;;18.60;
62976;BME280;49071;0.000;0.000;2024-02-26T00:09:30;99897.22;;;18.59;
62976;BME280;49071;0.000;0.000;2024-02-26T00:12:30;99903.53;;;18.56;
62976;BME280;49071;0.000;0.000;2024-02-26T00:15:30;99899.41;;;18.54;
62976;BME280;49071;0.000;0.000;2024-02-26T00:18:31;99905.63;;;18.53;
62976;BME280;49071;0.000;0.000;2024-02-26T00:21:31;99907.53;;;18.51;
62976;BME280;49071;0.000;0.000;2024-02-26T00:24:31;99898.03;;;18.50;
62976;BME280;49071;0.000;0.000;2024-02-26T00:27:31;99898.31;;;18.47;
62976;BME280;49071;0.000;0.000;2024-02-26T00:30:31;99894.88;;;18.46;
62976;BME280;49071;0.000;0.000;2024-02-26T00:33:32;99898.59;;;18.44;
62976;BME280;49071;0.000;0.000;2024-02-26T00:36:32;99892.53;;;18.44;
62976;BME280;49071;0.000;0.000;2024-02-26T00:39:32;99898.75;;;18.43;
62976;BME280;49071;0.000;0.000;2024-02-26T00:42:33;99898.06;;;18.41;
62976;BME280;49071;0.000;0.000;2024-02-26T00:45:33;99895.56;;;18.39;
62976;BME280;49071;0.000;0.000;2024-02-26T00:48:33;99885.22;;;18.38;
62976;BME280;49071;0.000;0.000;2024-02-26T00:51:33;99883.72;;;18.35;
62976;BME280;49071;0.000;0.000;2024-02-26T00:54:33;99876.84;;;18.34;
62976;BME280;49071;0.000;0.000;2024-02-26T00:57:34;99873.50;;;18.32;
62976;BME280;49071;0.000;0.000;2024-02-26T01:00:34;99871.88;;;18.31;
62976;BME280;49071;0.000;0.000;2024-02-26T01:03:34;99874.63;;;18.30;
62976;BME280;49071;0.000;0.000;2024-02-26T01:06:34;99866.91;;;18.28;
62976;BME280;49071;0.000;0.000;2024-02-26T01:09:35;99863.59;;;18.26;
62976;BME280;49071;0.000;0.000;2024-02-26T01:12:35;99862.78;;;18.26;
62976;BME280;49071;0.000;0.000;2024-02-26T01:15:35;99861.13;;;18.25;
62976;BME280;49071;0.000;0.000;2024-02-26T01:18:36;99860.59;;;18.21;
62976;BME280;49071;0.000;0.000;2024-02-26T01:21:36;99857.97;;;18.21;
62976;BME280;49071;0.000;0.000;2024-02-26T01:24:36;99857.28;;;18.19;
62976;BME280;49071;0.000;0.000;2024-02-26T01:27:36;99849.56;;;18.18;
62976;BME280;49071;0.000;0.000;2024-02-26T01:30:37;99853.94;;;18.17;
62976;BME280;49071;0.000;0.000;2024-02-26T01:33:37;99850.66;;;18.16;
62976;BME280;49071;0.000;0.000;2024-02-26T01:36:37;99845.56;;;18.14;
62976;BME280;49071;0.000;0.000;2024-02-26T01:39:37;99848.31;;;18.13;
62976;BME280;49071;0.000;0.000;2024-02-26T01:42:38;99846.66;;;18.12;
62976;BME280;49071;0.000;0.000;2024-02-26T01:45:38;99836.34;;;18.10;
62976;BME280;49071;0.000;0.000;2024-02-26T01:48:38;99839.94;;;18.09;
62976;BME280;49071;0.000;0.000;2024-02-26T01:51:38;99840.03;;;18.08;
62976;BME280;49071;0.000;0.000;2024-02-26T01:54:39;99835.78;;;18.07;
62976;BME280;49071;0.000;0.000;2024-02-26T01:57:41;99844.63;;;18.06;
62976;BME280;49071;0.000;0.000;2024-02-26T02:00:42;99848.19;;;18.05;
62976;BME280;49071;0.000;0.000;2024-02-26T02:03:43;99846.53;;;18.04;
62976;BME280;49071;0.000;0.000;2024-02-26T02:06:43;99849.25;;;18.02;
62976;BME280;49071;0.000;0.000;2024-02-26T02:09:45;99852.03;;;18.01;
62976;BME280;49071;0.000;0.000;2024-02-26T02:12:45;99842.50;;;18.00;
62976;BME280;49071;0.000;0.000;2024-02-26T02:15:45;99850.38;;;18.00;
62976;BME280;49071;0.000;0.000;2024-02-26T02:18:45;99844.44;;;17.98;
62976;BME280;49071;0.000;0.000;2024-02-26T02:21:46;99844.56;;;17.96;
62976;BME280;49071;0.000;0.000;2024-02-26T02:24:46;99836.84;;;17.95;
62976;BME280;49071;0.000;0.000;2024-02-26T02:27:47;99842.09;;;17.95;
62976;BME280;49071;0.000;0.000;2024-02-26T02:30:47;99847.59;;;17.92;
62976;BME280;49071;0.000;0.000;2024-02-26T02:33:48;99843.34;;;17.91;
62976;BME280;49071;0.000;0.000;2024-02-26T02:36:52;99842.50;;;17.90;
62976;BME280;49071;0.000;0.000;2024-02-26T02:39:52;99846.88;;;17.90;
62976;BME280;49071;0.000;0.000;2024-02-26T02:42:54;99851.47;;;17.88;
62976;BME280;49071;0.000;0.000;2024-02-26T02:45:55;99860.25;;;17.87;
62976;BME280;49071;0.000;0.000;2024-02-26T02:48:55;99863.84;;;17.86;
62976;BME280;49071;0.000;0.000;2024-02-26T02:51:55;99860.41;;;17.86;
62976;BME280;49071;0.000;0.000;2024-02-26T02:54:57;99868.38;;;17.84;
62976;BME280;49071;0.000;0.000;2024-02-26T02:57:58;99864.94;;;17.84;
62976;BME280;49071;0.000;0.000;2024-02-26T03:00:58;99872.09;;;17.82;
62976;BME280;49071;0.000;0.000;2024-02-26T03:04:00;99868.78;;;17.80;
62976;BME280;49071;0.000;0.000;2024-02-26T03:07:00;99866.19;;;17.80;
62976;BME280;49071;0.000;0.000;2024-02-26T03:10:00;99855.81;;;17.78;
62976;BME280;49071;0.000;0.000;2024-02-26T03:13:00;99849.94;;;17.76;
62976;BME280;49071;0.000;0.000;2024-02-26T03:16:04;99852.53;;;17.76;
62976;BME280;49071;0.000;0.000;2024-02-26T03:19:04;99850.03;;;17.75;
62976;BME280;49071;0.000;0.000;2024-02-26T03:22:04;99841.38;;;17.74;
62976;BME280;49071;0.000;0.000;2024-02-26T03:25:05;99848.56;;;17.72;
62976;BME280;49071;0.000;0.000;2024-02-26T03:28:05;99845.94;;;17.72;
62976;BME280;49071;0.000;0.000;2024-02-26T03:31:05;99853.09;;;17.70;
62976;BME280;49071;0.000;0.000;2024-02-26T03:34:05;99854.72;;;17.71;
62976;BME280;49071;0.000;0.000;2024-02-26T03:37:06;99852.38;;;17.68;
62976;BME280;49071;0.000;0.000;2024-02-26T03:40:07;99851.56;;;17.68;
62976;BME280;49071;0.000;0.000;2024-02-26T03:43:08;99851.56;;;17.68;
62976;BME280;49071;0.000;0.000;2024-02-26T03:46:08;99862.16;;;17.66;
62976;BME280;49071;0.000;0.000;2024-02-26T03:49:09;99858.84;;;17.64;
62976;BME280;49071;0.000;0.000;2024-02-26T03:52:09;99860.75;;;17.62;
62976;BME280;49071;0.000;0.000;2024-02-26T03:55:09;99865.16;;;17.62;
62976;BME280;49071;0.000;0.000;2024-02-26T03:58:12;99869.59;;;17.61;
62976;BME280;49071;0.000;0.000;2024-02-26T04:01:12;99856.78;;;17.58;
62976;BME280;49071;0.000;0.000;2024-02-26T04:04:12;99869.03;;;17.58;
62976;BME280;49071;0.000;0.000;2024-02-26T04:07:13;99856.91;;;17.57;
62976;BME280;49071;0.000;0.000;2024-02-26T04:10:13;99864.88;;;17.56;
62976;BME280;49071;0.000;0.000;2024-02-26T04:13:13;99857.19;;;17.54;
62976;BME280;49071;0.000;0.000;2024-02-26T04:16:14;99862.41;;;17.54;
62976;BME280;49071;0.000;0.000;2024-02-26T04:19:15;99862.56;;;17.62;
62976;BME280;49071;0.000;0.000;2024-02-26T04:22:15;99866.16;;;17.70;
62976;BME280;49071;0.000;0.000;2024-02-26T04:25:15;99866.28;;;17.78;
62976;BME280;49071;0.000;0.000;2024-02-26T04:28:15;99862.75;;;17.88;
62976;BME280;49071;0.000;0.000;2024-02-26T04:31:16;99862.50;;;18.01;
62976;BME280;49071;0.000;0.000;2024-02-26T04:34:16;99860.59;;;18.12;
62976;BME280;49071;0.000;0.000;2024-02-26T04:37:16;99863.59;;;18.26;
62976;BME280;49071;0.000;0.000;2024-02-26T04:40:16;99865.09;;;18.38;
62976;BME280;49071;0.000;0.000;2024-02-26T04:43:16;99867.44;;;18.50;
62976;BME280;49071;0.000;0.000;2024-02-26T04:46:18;99872.38;;;18.63;
62976;BME280;49071;0.000;0.000;2024-02-26T04:49:18;99864.38;;;18.74;
62976;BME280;49071;0.000;0.000;2024-02-26T04:52:18;99858.00;;;18.85;
62976;BME280;49071;0.000;0.000;2024-02-26T04:55:18;99864.34;;;18.92;
62976;BME280;49071;0.000;0.000;2024-02-26T04:58:19;99871.22;;;18.93;
62976;BME280;49071;0.000;0.000;2024-02-26T05:01:19;99881.72;;;18.93;
62976;BME280;49071;0.000;0.000;2024-02-26T05:04:19;99887.22;;;18.90;
62976;BME280;49071;0.000;0.000;2024-02-26T05:07:19;99885.97;;;18.85;
62976;BME280;49071;0.000;0.000;2024-02-26T05:10:19;99904.06;;;18.78;
62976;BME280;49071;0.000;0.000;2024-02-26T05:13:20;99910.72;;;18.73;
62976;BME280;49071;0.000;0.000;2024-02-26T05:16:20;99908.50;;;18.69;
62976;BME280;49071;0.000;0.000;2024-02-26T05:19:24;99906.44;;;18.63;
62976;BME280;49071;0.000;0.000;2024-02-26T05:22:24;99907.69;;;18.59;
62976;BME280;49071;0.000;0.000;2024-02-26T05:25:24;99905.63;;;18.53;
62976;BME280;49071;0.000;0.000;2024-02-26T05:28:25;99908.66;;;18.48;
62976;BME280;49071;0.000;0.000;2024-02-26T05:31:26;99909.91;;;18.45;
62976;BME280;49071;0.000;0.000;2024-02-26T05:34:26;99911.97;;;18.41;
62976;BME280;49071;0.000;0.000;2024-02-26T05:37:26;99910.59;;;18.37;
62976;BME280;49071;0.000;0.000;2024-02-26T05:40:26;99916.94;;;18.35;
62976;BME280;49071;0.000;0.000;2024-02-26T05:43:26;99926.88;;;18.31;
62976;BME280;49071;0.000;0.000;2024-02-26T05:46:27;99932.22;;;18.30;
62976;BME280;49071;0.000;0.000;2024-02-26T05:49:27;99932.66;;;18.25;
62976;BME280;49071;0.000;0.000;2024-02-26T05:52:27;99938.16;;;18.22;
62976;BME280;49071;0.000;0.000;2024-02-26T05:55:29;99944.63;;;18.18;
62976;BME280;49071;0.000;0.000;2024-02-26T05:58:29;99950.16;;;18.16;
62976;BME280;49071;0.000;0.000;2024-02-26T06:01:30;99943.50;;;18.12;
62976;BME280;49071;0.000;0.000;2024-02-26T06:04:30;99952.31;;;18.11;
62976;BME280;49071;0.000;0.000;2024-02-26T06:07:30;99953.56;;;18.07;
62976;BME280;49071;0.000;0.000;2024-02-26T06:10:30;99963.34;;;18.05;
62976;BME280;49071;0.000;0.000;2024-02-26T06:13:31;99967.91;;;18.03;
62976;BME280;49071;0.000;0.000;2024-02-26T06:16:31;99967.19;;;18.01;
62976;BME280;49071;0.000;0.000;2024-02-26T06:19:31;99958.59;;;17.99;
62976;BME280;49071;0.000;0.000;2024-02-26T06:22:31;99971.03;;;17.97;
62976;BME280;49071;0.000;0.000;2024-02-26T06:25:32;99969.34;;;17.96;
62976;BME280;49071;0.000;0.000;2024-02-26T06:28:32;99967.69;;;17.95;
62976;BME280;49071;0.000;0.000;2024-02-26T06:31:33;99967.69;;;17.95;
62976;BME280;49071;0.000;0.000;2024-02-26T06:34:34;99972.22;;;17.93;
62976;BME280;49071;0.000;0.000;2024-02-26T06:37:34;99972.94;;;17.95;
62976;BME280;49071;0.000;0.000;2024-02-26T06:40:34;99966.06;;;17.94;
62976;BME280;49071;0.000;0.000;2024-02-26T06:43:34;99981.50;;;17.97;
62976;BME280;49071;0.000;0.000;2024-02-26T06:46:35;99971.34;;;18.03;
62976;BME280;49071;0.000;0.000;2024-02-26T06:49:35;99973.00;;;18.14;
62976;BME280;49071;0.000;0.000;2024-02-26T06:52:35;99972.63;;;18.27;
62976;BME280;49071;0.000;0.000;2024-02-26T06:55:35;99978.25;;;18.42;
62976;BME280;49071;0.000;0.000;2024-02-26T06:58:37;99987.09;;;18.59;
62976;BME280;49071;0.000;0.000;2024-02-26T07:01:40;99979.38;;;18.76;
62976;BME280;49071;0.000;0.000;2024-02-26T07:04:40;99976.88;;;18.94;
62976;BME280;49071;0.000;0.000;2024-02-26T07:07:40;99976.84;;;19.12;
62976;BME280;49071;0.000;0.000;2024-02-26T07:10:41;99976.25;;;19.37;
62976;BME280;49071;0.000;0.000;2024-02-26T07:13:41;99977.25;;;19.62;
62976;BME280;49071;0.000;0.000;2024-02-26T07:16:41;99983.53;;;19.79;
62976;BME280;49071;0.000;0.000;2024-02-26T07:19:42;99977.06;;;20.00;
62976;BME280;49071;0.000;0.000;2024-02-26T07:22:42;99982.50;;;20.16;
62976;BME280;49071;0.000;0.000;2024-02-26T07:25:42;99979.22;;;20.31;
62976;BME280;49071;0.000;0.000;2024-02-26T07:28:44;99975.41;;;20.43;
62976;BME280;49071;0.000;0.000;2024-02-26T07:31:44;99974.22;;;20.54;
62976;BME280;49071;0.000;0.000;2024-02-26T07:34:44;99963.41;;;20.57;
62976;BME280;49071;0.000;0.000;2024-02-26T07:37:47;99968.25;;;20.52;
62976;BME280;49071;0.000;0.000;2024-02-26T07:40:47;99967.91;;;20.48;
62976;BME280;49071;0.000;0.000;2024-02-26T07:43:48;99976.22;;;20.43;
62976;BME280;49071;0.000;0.000;2024-02-26T07:46:48;99986.50;;;20.37;
62976;BME280;49071;0.000;0.000;2024-02-26T07:49:48;99985.47;;;20.30;
62976;BME280;49071;0.000;0.000;2024-02-26T07:52:49;99987.69;;;20.25;
62976;BME280;49071;0.000;0.000;2024-02-26T07:55:51;99982.91;;;20.20;
62976;BME280;49071;0.000;0.000;2024-02-26T07:58:51;99985.94;;;20.16;
62976;BME280;49071;0.000;0.000;2024-02-26T08:01:51;99978.69;;;20.10;
62976;BME280;49071;0.000;0.000;2024-02-26T08:04:51;99987.81;;;20.06;
62976;BME280;49071;0.000;0.000;2024-02-26T08:07:52;99981.22;;;20.02;
62976;BME280;49071;0.000;0.000;2024-02-26T08:10:52;99979.88;;;19.98;
62976;BME280;49071;0.000;0.000;2024-02-26T08:13:52;99974.22;;;19.93;
62976;BME280;49071;0.000;0.000;2024-02-26T08:16:52;99982.66;;;19.88;
62976;BME280;49071;0.000;0.000;2024-02-26T08:19:52;99977.34;;;19.80;
62976;BME280;49071;0.000;0.000;2024-02-26T08:22:53;99976.25;;;19.73;
62976;BME280;49071;0.000;0.000;2024-02-26T08:25:53;99970.88;;;19.65;
62976;BME280;49071;0.000;0.000;2024-02-26T08:28:53;99975.03;;;19.58;
62976;BME280;49071;0.000;0.000;2024-02-26T08:31:55;99976.47;;;19.53;
62976;BME280;49071;0.000;0.000;2024-02-26T08:34:55;99974.41;;;19.47;
62976;BME280;49071;0.000;0.000;2024-02-26T08:37:56;99969.88;;;19.39;
62976;BME280;49071;0.000;0.000;2024-02-26T08:40:56;99973.47;;;19.38;
62976;BME280;49071;0.000;0.000;2024-02-26T08:43:56;99977.59;;;19.41;
62976;BME280;49071;0.000;0.000;2024-02-26T08:46:58;99975.94;;;19.49;
62976;BME280;49071;0.000;0.000;2024-02-26T08:49:58;99978.34;;;19.60;
62976;BME280;49071;0.000;0.000;2024-02-26T08:52:58;99980.13;;;19.69;
62976;BME280;49071;0.000;0.000;2024-02-26T08:56:01;99979.69;;;19.83;
62976;BME280;49071;0.000;0.000;2024-02-26T08:59:01;99979.75;;;19.91;
62976;BME280;49071;0.000;0.000;2024-02-26T09:02:03;99967.69;;;19.97;
62976;BME280;49071;0.000;0.000;2024-02-26T09:05:04;99975.28;;;20.00;
62976;BME280;49071;0.000;0.000;2024-02-26T09:08:05;99972.00;;;20.16;
62976;BME280;49071;0.000;0.000;2024-02-26T09:11:06;99969.09;;;20.36;
62976;BME280;49071;0.000;0.000;2024-02-26T09:14:07;99975.75;;;20.57;
62976;BME280;49071;0.000;0.000;2024-02-26T09:17:08;99968.00;;;20.73;
62976;BME280;49071;0.000;0.000;2024-02-26T09:20:08;99962.56;;;20.74;
62976;BME280;49071;0.000;0.000;2024-02-26T09:23:09;99964.38;;;20.74;
62976;BME280;49071;0.000;0.000;2024-02-26T09:26:09;99963.56;;;20.73;
62976;BME280;49071;0.000;0.000;2024-02-26T09:29:09;99973.56;;;20.70;
62976;BME280;49071;0.000;0.000;2024-02-26T09:32:10;99964.47;;;20.64;
62976;BME280;49071;0.000;0.000;2024-02-26T09:35:10;99969.06;;;20.62;
62976;BME280;49071;0.000;0.000;2024-02-26T09:38:10;99970.03;;;20.61;
62976;BME280;49071;0.000;0.000;2024-02-26T09:41:17;99975.28;;;20.61;
62976;BME280;49071;0.000;0.000;2024-02-26T09:44:20;99979.88;;;20.59;
62976;BME280;49071;0.000;0.000;2024-02-26T09:47:21;99974.22;;;20.54;
62976;BME280;49071;0.000;0.000;2024-02-26T09:50:22;99976.44;;;20.49;
62976;BME280;49071;0.000;0.000;2024-02-26T09:53:23;99980.94;;;20.40;
62976;BME280;49071;0.000;0.000;2024-02-26T09:56:23;99988.78;;;20.32;
62976;BME280;49071;0.000;0.000;2024-02-26T09:59:23;99988.69;;;20.24;
62976;BME280;49071;0.000;0.000;2024-02-26T10:02:24;99985.00;;;20.17;
62976;BME280;49071;0.000;0.000;2024-02-26T10:05:24;99984.19;;;20.17;
62976;BME280;49071;0.000;0.000;2024-02-26T10:08:25;99971.03;;;20.17;
62976;BME280;49071;0.000;0.000;2024-02-26T10:11:26;99982.66;;;20.14;
62976;BME280;49071;0.000;0.000;2024-02-26T10:14:26;99974.25;;;20.11;
62976;BME280;49071;0.000;0.000;2024-02-26T10:17:27;99975.38;;;20.08;
62976;BME280;49071;0.000;0.000;2024-02-26T10:20:28;99978.41;;;20.04;
62976;BME280;49071;0.000;0.000;2024-02-26T10:23:28;99988.41;;;20.00;
62976;BME280;49071;0.000;0.000;2024-02-26T10:26:28;99979.88;;;19.98;
62976;BME280;49071;0.000;0.000;2024-02-26T10:29:28;99989.69;;;19.96;
62976;BME280;49071;0.000;0.000;2024-02-26T10:32:28;99993.41;;;19.94;
62976;BME280;49071;0.000;0.000;2024-02-26T10:35:29;99980.44;;;19.92;
62976;BME280;49071;0.000;0.000;2024-02-26T10:38:35;99976.59;;;19.87;
62976;BME280;49071;0.000;0.000;2024-02-26T10:41:35;99978.53;;;19.85;
62976;BME280;49071;0.000;0.000;2024-02-26T10:44:35;99978.00;;;19.82;
62976;BME280;49071;0.000;0.000;2024-02-26T10:47:36;99979.00;;;19.81;
62976;BME280;49071;0.000;0.000;2024-02-26T10:50:36;99975.41;;;19.72;
62976;BME280;49071;0.000;0.000;2024-02-26T10:53:36;99984.66;;;19.67;
62976;BME280;49071;0.000;0.000;2024-02-26T10:56:37;99971.19;;;19.62;
62976;BME280;49071;0.000;0.000;2024-02-26T10:59:39;99967.84;;;19.60;
62976;BME280;49071;0.000;0.000;2024-02-26T11:02:41;99978.22;;;19.62;
62976;BME280;49071;0.000;0.000;2024-02-26T11:05:44;99970.19;;;19.63;
62976;BME280;49071;0.000;0.000;2024-02-26T11:08:44;99964.25;;;19.61;
62976;BME280;49071;0.000;0.000;2024-02-26T11:11:47;99960.97;;;19.59;
62976;BME280;49071;0.000;0.000;2024-02-26T11:14:48;99967.31;;;19.57;
62976;BME280;49071;0.000;0.000;2024-02-26T11:17:52;99959.75;;;19.54;
62976;BME280;49071;0.000;0.000;2024-02-26T11:20:52;99964.28;;;19.52;
62976;BME280;49071;0.000;0.000;2024-02-26T11:23:56;99961.38;;;19.55;
62976;BME280;49071;0.000;0.000;2024-02-26T11:26:58;99967.84;;;19.60;
62976;BME280;49071;0.000;0.000;2024-02-26T11:30:01;99968.94;;;19.67;
62976;BME280;49071;0.000;0.000;2024-02-26T11:33:02;99966.69;;;19.72;
62976;BME280;49071;0.000;0.000;2024-02-26T11:36:09;99965.03;;;19.80;
62976;BME280;49071;0.000;0.000;2024-02-26T11:39:11;99956.44;;;19.88;
62976;BME280;49071;0.000;0.000;2024-02-26T11:42:15;99952.09;;;19.96;
62976;BME280;49071;0.000;0.000;2024-02-26T11:48:34;99961.72;;;20.22;
62976;BME280;49071;0.000;0.000;2024-02-26T11:51:34;99956.25;;;20.33;
62976;BME280;49071;0.000;0.000;2024-02-26T11:54:50;99955.88;;;20.45;
62976;BME280;49071;0.000;0.000;2024-02-26T11:57:52;99958.16;;;20.57;
62976;BME280;49071;0.000;0.000;2024-02-26T12:00:52;99950.38;;;20.65;
62976;BME280;49071;0.000;0.000;2024-02-26T12:03:55;99951.31;;;20.64;
62976;BME280;49071;0.000;0.000;2024-02-26T12:06:57;99944.88;;;20.59;
62976;BME280;49071;0.000;0.000;2024-02-26T12:10:20;99950.84;;;20.51;
62976;BME280;49071;0.000;0.000;2024-02-26T12:13:21;99955.06;;;20.45;
62976;BME280;49071;0.000;0.000;2024-02-26T12:16:38;99951.91;;;20.41;
62976;BME280;49071;0.000;0.000;2024-02-26T12:19:39;99947.91;;;20.37;
62976;BME280;49071;0.000;0.000;2024-02-26T12:22:39;99957.25;;;20.32;
62976;BME280;49071;0.000;0.000;2024-02-26T12:25:40;99955.22;;;20.26;
62976;BME280;49071;0.000;0.000;2024-02-26T12:28:41;99965.34;;;20.21;
62976;BME280;49071;0.000;0.000;2024-02-26T12:31:41;99964.00;;;20.17;
62976;BME280;49071;0.000;0.000;2024-02-26T12:34:42;99959.63;;;20.08;
62976;BME280;49071;0.000;0.000;2024-02-26T12:37:45;99960.34;;;20.01;
62976;BME280;49071;0.000;0.000;2024-02-26T12:40:46;99969.66;;;19.95;
62976;BME280;49071;0.000;0.000;2024-02-26T12:43:48;99965.94;;;19.89;
62976;BME280;49071;0.000;0.000;2024-02-26T12:46:49;99968.31;;;19.82;
62976;BME280;49071;0.000;0.000;2024-02-26T12:49:49;99970.59;;;19.77;
62976;BME280;49071;0.000;0.000;2024-02-26T12:52:49;99975.31;;;19.74;
62976;BME280;49071;0.000;0.000;2024-02-26T12:55:51;99978.19;;;19.71;
62976;BME280;49071;0.000;0.000;2024-02-26T12:58:51;99979.28;;;19.68;
62976;BME280;49071;0.000;0.000;2024-02-26T13:01:52;99981.91;;;19.68;
62976;BME280;49071;0.000;0.000;2024-02-26T13:04:53;99982.31;;;19.73;
62976;BME280;49071;0.000;0.000;2024-02-26T13:07:53;99980.78;;;19.80;
62976;BME280;49071;0.000;0.000;2024-02-26T13:10:54;99993.72;;;19.91;
62976;BME280;49071;0.000;0.000;2024-02-26T13:13:54;99996.81;;;20.04;
62976;BME280;49071;0.000;0.000;2024-02-26T13:16:55;99997.16;;;20.18;
62976;BME280;49071;0.000;0.000;2024-02-26T13:19:56;99989.44;;;20.34;
62976;BME280;49071;0.000;0.000;2024-02-26T13:23:02;99995.00;;;20.48;
62976;BME280;49071;0.000;0.000;2024-02-26T13:26:03;99987.75;;;20.59;
62976;BME280;49071;0.000;0.000;2024-02-26T13:29:03;99981.13;;;20.73;
62976;BME280;49071;0.000;0.000;2024-02-26T13:32:03;99981.03;;;20.82;
62976;BME280;49071;0.000;0.000;2024-02-26T13:35:04;99982.38;;;20.86;
62976;BME280;49071;0.000;0.000;2024-02-26T13:38:05;99991.03;;;20.78;
62976;BME280;49071;0.000;0.000;2024-02-26T13:41:06;99993.47;;;20.72;
62976;BME280;49071;0.000;0.000;2024-02-26T13:44:06;99989.63;;;20.67;
62976;BME280;49071;0.000;0.000;2024-02-26T13:47:06;99993.84;;;20.60;
62976;BME280;49071;0.000;0.000;2024-02-26T13:50:06;99992.63;;;20.54;
62976;BME280;49071;0.000;0.000;2024-02-26T13:53:07;99996.81;;;20.48;
62976;BME280;49071;0.000;0.000;2024-02-26T13:56:08;99996.41;;;20.43;
62976;BME280;49071;0.000;0.000;2024-02-26T13:59:09;99994.38;;;20.37;
62976;BME280;49071;0.000;0.000;2024-02-26T14:02:10;99997.59;;;20.31;
62976;BME280;49071;0.000;0.000;2024-02-26T14:05:10;99992.94;;;20.25;
62976;BME280;49071;0.000;0.000;2024-02-26T14:08:10;99997.97;;;20.19;
62976;BME280;49071;0.000;0.000;2024-02-26T14:11:10;100006.59;;;20.11;
62976;BME280;49071;0.000;0.000;2024-02-26T14:14:11;100005.53;;;20.04;
62976;BME280;49071;0.000;0.000;2024-02-26T14:17:11;100001.69;;;19.99;
62976;BME280;49071;0.000;0.000;2024-02-26T14:20:12;100010.16;;;19.93;
62976;BME280;49071;0.000;0.000;2024-02-26T14:23:12;100009.75;;;19.88;
62976;BME280;49071;0.000;0.000;2024-02-26T14:26:13;100015.72;;;19.81;
62976;BME280;49071;0.000;0.000;2024-02-26T14:29:13;100010.91;;;19.76;
62976;BME280;49071;0.000;0.000;2024-02-26T14:32:14;100012.28;;;19.71;
62976;BME280;49071;0.000;0.000;2024-02-26T14:35:14;100020.00;;;19.72;
62976;BME280;49071;0.000;0.000;2024-02-26T14:38:15;100021.41;;;19.76;
62976;BME280;49071;0.000;0.000;2024-02-26T14:41:15;100023.44;;;19.82;
62976;BME280;49071;0.000;0.000;2024-02-26T14:44:15;100024.38;;;19.91;
62976;BME280;49071;0.000;0.000;2024-02-26T14:47:16;100027.78;;;20.00;
62976;BME280;49071;0.000;0.000;2024-02-26T14:50:16;100031.03;;;20.12;
62976;BME280;49071;0.000;0.000;2024-02-26T14:53:17;100032.34;;;20.25;
62976;BME280;49071;0.000;0.000;2024-02-26T14:56:17;100040.72;;;20.38;
62976;BME280;49071;0.000;0.000;2024-02-26T14:59:18;100034.25;;;20.49;
62976;BME280;49071;0.000;0.000;2024-02-26T15:02:18;100034.59;;;20.64;
62976;BME280;49071;0.000;0.000;2024-02-26T15:05:19;100035.88;;;20.77;
62976;BME280;49071;0.000;0.000;2024-02-26T15:08:19;100038.59;;;20.85;
62976;BME280;49071;0.000;0.000;2024-02-26T15:11:19;100043.16;;;20.83;
62976;BME280;49071;0.000;0.000;2024-02-26T15:14:20;100051.50;;;20.78;
62976;BME280;49071;0.000;0.000;2024-02-26T15:17:20;100062.63;;;20.73;
62976;BME280;49071;0.000;0.000;2024-02-26T15:20:20;100057.13;;;20.66;
62976;BME280;49071;0.000;0.000;2024-02-26T15:23:21;100060.50;;;20.59;
62976;BME280;49071;0.000;0.000;2024-02-26T15:26:22;100058.59;;;20.51;
62976;BME280;49071;0.000;0.000;2024-02-26T15:29:22;100063.63;;;20.45;
62976;BME280;49071;0.000;0.000;2024-02-26T15:32:22;100073.88;;;20.39;
62976;BME280;49071;0.000;0.000;2024-02-26T15:35:24;100078.09;;;20.32;
62976;BME280;49071;0.000;0.000;2024-02-26T15:38:24;100076.03;;;20.26;
62976;BME280;49071;0.000;0.000;2024-02-26T15:41:24;100085.31;;;20.20;
62976;BME280;49071;0.000;0.000;2024-02-26T15:44:25;100082.47;;;20.14;
62976;BME280;49071;0.000;0.000;2024-02-26T15:47:25;100083.16;;;20.07;
62976;BME280;49071;0.000;0.000;2024-02-26T15:50:25;100089.84;;;20.01;
62976;BME280;49071;0.000;0.000;2024-02-26T15:53:26;100100.91;;;19.95;
62976;BME280;49071;0.000;0.000;2024-02-26T15:56:26;100102.16;;;19.91;
62976;BME280;49071;0.000;0.000;2024-02-26T15:59:26;100112.41;;;19.85;
62976;BME280;49071;0.000;0.000;2024-02-26T16:02:27;100118.09;;;19.81;
62976;BME280;49071;0.000;0.000;2024-02-26T16:05:27;100116.75;;;19.77;
62976;BME280;49071;0.000;0.000;2024-02-26T16:08:27;100123.09;;;19.74;
62976;BME280;49071;0.000;0.000;2024-02-26T16:11:28;100123.34;;;19.81;
62976;BME280;49071;0.000;0.000;2024-02-26T16:17:41;100124.94;;;20.00;
62976;BME280;49071;0.000;0.000;2024-02-26T16:20:46;100134.28;;;20.12;
62976;BME280;49071;0.000;0.000;2024-02-26T16:23:47;100135.31;;;20.28;
62976;BME280;49071;0.000;0.000;2024-02-26T16:26:47;100141.91;;;20.42;
62976;BME280;49071;0.000;0.000;2024-02-26T16:29:47;100138.81;;;20.55;
62976;BME280;49071;0.000;0.000;2024-02-26T16:32:47;100138.16;;;20.71;
62976;BME280;49071;0.000;0.000;2024-02-26T16:35:48;100150.00;;;20.84;
62976;BME280;49071;0.000;0.000;2024-02-26T16:38:48;100151.34;;;20.88;
62976;BME280;49071;0.000;0.000;2024-02-26T16:41:48;100150.66;;;20.86;
62976;BME280;49071;0.000;0.000;2024-02-26T16:44:48;100153.88;;;20.80;
62976;BME280;49071;0.000;0.000;2024-02-26T16:47:49;100156.97;;;20.76;
62976;BME280;49071;0.000;0.000;2024-02-26T16:50:49;100148.97;;;20.68;
62976;BME280;49071;0.000;0.000;2024-02-26T16:53:49;100154.00;;;20.61;
62976;BME280;49071;0.000;0.000;2024-02-26T16:56:49;100151.13;;;20.55;
62976;BME280;49071;0.000;0.000;2024-02-26T16:59:49;100153.47;;;20.48;
62976;BME280;49071;0.000;0.000;2024-02-26T17:02:50;100147.16;;;20.42;
62976;BME280;49071;0.000;0.000;2024-02-26T17:05:52;100151.34;;;20.35;
62976;BME280;49071;0.000;0.000;2024-02-26T17:08:52;100163.38;;;20.28;
62976;BME280;49071;0.000;0.000;2024-02-26T17:11:52;100163.00;;;20.23;
62976;BME280;49071;0.000;0.000;2024-02-26T17:14:54;100172.41;;;20.16;
62976;BME280;49071;0.000;0.000;2024-02-26T17:17:54;100172.16;;;20.10;
62976;BME280;49071;0.000;0.000;2024-02-26T17:20:54;100167.34;;;20.05;
62976;BME280;49071;0.000;0.000;2024-02-26T17:23:57;100179.41;;;19.98;